Time;durP1;ratioP1;P1;durP2;ratioP2;P2;SDS_P1;SDS_P2;PMS_P1;PMS_P2;Temp;Humidity;BMP_temperature;BMP_pressure;BME280_temperature;BME280_humidity;BME280_pressure;Samples;Min_cycle;Max_cycle;Signal;HPM_P1;HPM_P2
2022/08/18 00:00:33;;;;;;;;;;;;;;;;;;5014034;28;20304;-63
2022/08/18 00:03:01;;;;;;;;;;;;;;;;;;5011985;28;19928;-63
2022/08/18 00:05:26;;;;;;;;;;;;;;;;;;5000694;28;19921;-63
2022/08/18 00:07:51;;;;;;;;;;;;;;;;;;5014153;28;19921;-64
2022/08/18 00:10:17;;;;;;;;;;;;;;;;;;5012051;28;19925;-64
2022/08/18 00:12:45;;;;;;;;;;;;;;;;;;5010987;28;19921;-62
2022/08/18 00:15:10;;;;;;;;;;;;;;;;;;5025205;28;20312;-63
2022/08/18 00:17:36;;;;;;;;;;;;;;;;;;5011085;28;20594;-64
2022/08/18 00:20:01;;;;;;;;;;;;;;;;;;5012135;28;19917;-63
2022/08/18 00:22:29;;;;;;;;;;;;;;;;;;5010041;28;19925;-63
2022/08/18 00:24:58;;;;;;;;;;;;;;;;;;5000203;28;19979;-63
2022/08/18 00:27:23;;;;;;;;;;;;;;;;;;5023715;28;20048;-63
2022/08/18 00:29:52;;;;;;;;;;;;;;;;;;5010003;28;19921;-63
2022/08/18 00:32:18;;;;;;;;;;;;;;;;;;5009528;28;20822;-63
2022/08/18 00:34:43;;;;;;;;;;;;;;;;;;5012093;28;19925;-63
2022/08/18 00:37:09;;;;;;;;;;;;;;;;;;5013291;28;20027;-64
2022/08/18 00:39:34;;;;;;;;;;;;;;;;;;5009323;28;20442;-63
2022/08/18 00:42:00;;;;;;;;;;;;;;;;;;5008815;28;19925;-64
2022/08/18 00:44:28;;;;;;;;;;;;;;;;;;5013067;28;19928;-62
2022/08/18 00:46:58;;;;;;;;;;;;;;;;;;4999632;28;19921;-63
2022/08/18 00:49:23;;;;;;;;;;;;;;;;;;5010586;28;19920;-64
2022/08/18 00:51:48;;;;;;;;;;;;;;;;;;4996672;28;21172;-64
2022/08/18 00:54:14;;;;;;;;;;;;;;;;;;5012103;28;21000;-64
2022/08/18 00:56:40;;;;;;;;;;;;;;;;;;5014999;28;20556;-62
2022/08/18 00:59:05;;;;;;;;;;;;;;;;;;5009235;28;20407;-62
2022/08/18 01:01:31;;;;;;;;;;;;;;;;;;5011475;28;19982;-63
2022/08/18 01:03:57;;;;;;;;;;;;;;;;;;5010971;28;19974;-63
2022/08/18 01:06:22;;;;;;;;;;;;;;;;;;5005811;28;19928;-62
2022/08/18 01:08:47;;;;;;;;;;;;;;;;;;5011151;28;20038;-64
2022/08/18 01:11:13;;;;;;;;;;;;;;;;;;5010346;28;20011;-64
2022/08/18 01:13:39;;;;;;;;;;;;;;;;;;5012146;28;19939;-63
2022/08/18 01:21:49;;;;;;;;;;;;;;;;;;5012254;28;19921;-62
2022/08/18 01:21:52;;;;;;;;;;;;;;;;;;5027915;28;19921;-63
2022/08/18 01:24:17;;;;;;;;;;;;;;;;;;5010474;28;19921;-64
2022/08/18 01:26:48;;;;;;;;;;;;;;;;;;5009857;28;19924;-64
2022/08/18 01:29:13;;;;;;;;;;;;;;;;;;5011251;28;20617;-63
2022/08/18 01:31:42;;;;;;;;;;;;;;;;;;5007980;28;19921;-63
2022/08/18 01:34:07;;;;;;;;;;;;;;;;;;5013148;28;19925;-63
2022/08/18 01:36:33;;;;;;;;;;;;;;;;;;5010841;28;19924;-62
2022/08/18 01:38:59;;;;;;;;;;;;;;;;;;5006466;28;19923;-62
2022/08/18 01:41:25;;;;;;;;;;;;;;;;;;5012169;28;19943;-63
2022/08/18 01:43:50;;;;;;;;;;;;;;;;;;5007249;28;20189;-63
2022/08/18 01:46:16;;;;;;;;;;;;;;;;;;5008119;28;19917;-63
2022/08/18 01:48:42;;;;;;;;;;;;;;;;;;5009737;28;19963;-64
2022/08/18 01:51:07;;;;;;;;;;;;;;;;;;4998124;28;19927;-63
2022/08/18 01:53:34;;;;;;;;;;;;;;;;;;5012442;28;19920;-63
2022/08/18 01:56:04;;;;;;;;;;;;;;;;;;5011434;28;19999;-63
2022/08/18 01:58:29;;;;;;;;;;;;;;;;;;5008539;28;20395;-63
2022/08/18 02:01:00;;;;;;;;;;;;;;;;;;5009975;28;19921;-63
2022/08/18 02:03:25;;;;;;;;;;;;;;;;;;5025726;28;20391;-64
2022/08/18 02:05:52;;;;;;;;;;;;;;;;;;5009897;28;19920;-62
2022/08/18 02:08:20;;;;;;;;;;;;;;;;;;5026014;28;19917;-62
2022/08/18 02:10:48;;;;;;;;;;;;;;;;;;5009444;28;19921;-62
2022/08/18 02:13:13;;;;;;;;;;;;;;;;;;5030231;28;20430;-64
2022/08/18 02:15:39;;;;;;;;;;;;;;;;;;5012802;28;20050;-63
2022/08/18 02:18:07;;;;;;;;;;;;;;;;;;5014506;28;20058;-63
2022/08/18 02:20:34;;;;;;;;;;;;;;;;;;5011818;28;19938;-62
2022/08/18 02:23:00;;;;;;;;;;;;;;;;;;5015121;28;20439;-64
2022/08/18 02:25:27;;;;;;;;;;;;;;;;;;5014099;28;19969;-63
2022/08/18 02:27:53;;;;;;;;;;;;;;;;;;5014928;28;19925;-63
2022/08/18 02:30:19;;;;;;;;;;;;;;;;;;5013802;28;20434;-63
2022/08/18 02:32:45;;;;;;;;;;;;;;;;;;5012404;28;20280;-62
2022/08/18 02:35:13;;;;;;;;;;;;;;;;;;5000773;28;19924;-62
2022/08/18 02:37:38;;;;;;;;;;;;;;;;;;5011494;28;19921;-62
2022/08/18 02:40:04;;;;;;;;;;;;;;;;;;5012999;28;19931;-62
2022/08/18 02:42:29;;;;;;;;;;;;;;;;;;5028409;28;21526;-62
2022/08/18 02:44:57;;;;;;;;;;;;;;;;;;5015899;28;19917;-63
2022/08/18 02:47:25;;;;;;;;;;;;;;;;;;5010074;28;19921;-63
2022/08/18 02:49:50;;;;;;;;;;;;;;;;;;5012950;28;19925;-63
2022/08/18 02:52:16;;;;;;;;;;;;;;;;;;5014144;28;20007;-62
2022/08/18 02:54:41;;;;;;;;;;;;;;;;;;5011321;28;19926;-62
2022/08/18 02:57:06;;;;;;;;;;;;;;;;;;5015104;28;19917;-63
2022/08/18 02:59:35;;;;;;;;;;;;;;;;;;5012405;28;19933;-63
2022/08/18 03:02:04;;;;;;;;;;;;;;;;;;5012814;28;19952;-63
2022/08/18 03:04:31;;;;;;;;;;;;;;;;;;5013925;28;19925;-62
2022/08/18 03:06:57;;;;;;;;;;;;;;;;;;5013683;28;19924;-62
2022/08/18 03:09:23;;;;;;;;;;;;;;;;;;5015971;28;19921;-62
2022/08/18 03:11:48;;;;;;;;;;;;;;;;;;5013534;28;19964;-63
2022/08/18 03:14:15;;;;;;;;;;;;;;;;;;5016250;28;20011;-63
2022/08/18 03:16:40;;;;;;;;;;;;;;;;;;5010812;28;20031;-63
2022/08/18 03:19:06;;;;;;;;;;;;;;;;;;5014366;28;20358;-63
2022/08/18 03:21:34;;;;;;;;;;;;;;;;;;5012955;28;20007;-63
2022/08/18 03:24:04;;;;;;;;;;;;;;;;;;4999072;28;19940;-63
2022/08/18 03:26:30;;;;;;;;;;;;;;;;;;5010282;28;19921;-62
2022/08/18 03:29:00;;;;;;;;;;;;;;;;;;5013947;28;20003;-62
2022/08/18 03:31:28;;;;;;;;;;;;;;;;;;5014003;28;20027;-62
2022/08/18 03:33:57;;;;;;;;;;;;;;;;;;5011252;28;20628;-63
2022/08/18 03:36:25;;;;;;;;;;;;;;;;;;5011721;28;19928;-62
2022/08/18 03:38:50;;;;;;;;;;;;;;;;;;5016057;28;20450;-63
2022/08/18 03:41:18;;;;;;;;;;;;;;;;;;5027459;28;19925;-63
2022/08/18 03:43:44;;;;;;;;;;;;;;;;;;4998380;28;19921;-63
2022/08/18 03:46:11;;;;;;;;;;;;;;;;;;5012014;28;19970;-63
2022/08/18 03:48:42;;;;;;;;;;;;;;;;;;5001877;28;19956;-63
2022/08/18 03:51:10;;;;;;;;;;;;;;;;;;5013401;28;19970;-63
2022/08/18 03:53:35;;;;;;;;;;;;;;;;;;5012085;28;19917;-63
2022/08/18 03:56:01;;;;;;;;;;;;;;;;;;5013190;28;19925;-64
2022/08/18 03:58:30;;;;;;;;;;;;;;;;;;5011134;28;19974;-62
2022/08/18 04:00:55;;;;;;;;;;;;;;;;;;5015214;28;20580;-62
2022/08/18 04:03:20;;;;;;;;;;;;;;;;;;5013728;28;19928;-62
2022/08/18 04:05:50;;;;;;;;;;;;;;;;;;5012702;28;20093;-63
2022/08/18 04:08:15;;;;;;;;;;;;;;;;;;5013799;28;19927;-63
2022/08/18 04:10:41;;;;;;;;;;;;;;;;;;5010684;28;19921;-63
2022/08/18 04:13:06;;;;;;;;;;;;;;;;;;5013660;28;20003;-63
2022/08/18 04:15:32;;;;;;;;;;;;;;;;;;5001457;28;20376;-63
2022/08/18 04:17:57;;;;;;;;;;;;;;;;;;5010371;28;19921;-64
2022/08/18 04:20:23;;;;;;;;;;;;;;;;;;5015056;28;20856;-63
2022/08/18 04:22:50;;;;;;;;;;;;;;;;;;4999514;28;19944;-63
2022/08/18 04:25:16;;;;;;;;;;;;;;;;;;5013608;28;20902;-63
2022/08/18 04:27:42;;;;;;;;;;;;;;;;;;5009635;28;19927;-63
2022/08/18 04:30:07;;;;;;;;;;;;;;;;;;5014528;28;20002;-63
2022/08/18 04:32:36;;;;;;;;;;;;;;;;;;5007501;28;19921;-63
2022/08/18 04:35:01;;;;;;;;;;;;;;;;;;5021610;28;19920;-63
2022/08/18 04:37:27;;;;;;;;;;;;;;;;;;5012209;28;19971;-63
2022/08/18 04:39:52;;;;;;;;;;;;;;;;;;4994107;28;19928;-62
2022/08/18 04:42:20;;;;;;;;;;;;;;;;;;5007717;28;20018;-62
2022/08/18 04:44:45;;;;;;;;;;;;;;;;;;5007821;28;19925;-62
2022/08/18 04:47:13;;;;;;;;;;;;;;;;;;5027615;28;19920;-62
2022/08/18 04:49:38;;;;;;;;;;;;;;;;;;5011700;28;19932;-61
2022/08/18 04:54:50;;;;;;;;;;;;;;;;;;5011243;28;20035;-61
2022/08/18 04:57:18;;;;;;;;;;;;;;;;;;5015642;28;19931;-61
2022/08/18 04:59:43;;;;;;;;;;;;;;;;;;5009979;28;19921;-60
2022/08/18 05:02:11;;;;;;;;;;;;;;;;;;5009860;28;19921;-61
2022/08/18 05:04:39;;;;;;;;;;;;;;;;;;5012976;28;19925;-59
2022/08/18 05:07:05;;;;;;;;;;;;;;;;;;5008088;28;19955;-60
2022/08/18 05:09:32;;;;;;;;;;;;;;;;;;5009835;28;20019;-60
2022/08/18 05:11:58;;;;;;;;;;;;;;;;;;5009709;28;20025;-60
2022/08/18 05:14:26;;;;;;;;;;;;;;;;;;5010419;28;19921;-59
2022/08/18 05:16:51;;;;;;;;;;;;;;;;;;4996674;28;19979;-59
2022/08/18 05:19:20;;;;;;;;;;;;;;;;;;5014612;28;19917;-61
2022/08/18 05:21:50;;;;;;;;;;;;;;;;;;5005126;28;20611;-61
2022/08/18 05:24:15;;;;;;;;;;;;;;;;;;5009552;28;19920;-60
2022/08/18 05:26:44;;;;;;;;;;;;;;;;;;5003041;28;20335;-60
2022/08/18 05:29:09;;;;;;;;;;;;;;;;;;5009244;28;19931;-60
2022/08/18 05:31:35;;;;;;;;;;;;;;;;;;5005570;28;20054;-60
2022/08/18 05:34:02;;;;;;;;;;;;;;;;;;5014024;28;21679;-60
2022/08/18 05:36:30;;;;;;;;;;;;;;;;;;5013960;28;19921;-61
2022/08/18 05:38:57;;;;;;;;;;;;;;;;;;5010060;28;20038;-59
2022/08/18 05:41:25;;;;;;;;;;;;;;;;;;5009235;28;19925;-61
2022/08/18 05:43:50;;;;;;;;;;;;;;;;;;5010962;28;20559;-61
2022/08/18 05:46:16;;;;;;;;;;;;;;;;;;5010715;28;19925;-61
2022/08/18 05:48:41;;;;;;;;;;;;;;;;;;5013278;28;20655;-61
2022/08/18 05:51:07;;;;;;;;;;;;;;;;;;5015299;28;19928;-61
2022/08/18 05:59:01;;;;;;;;;;;;;;;;;;5017125;28;19921;-62
2022/08/18 06:01:27;;;;;;;;;;;;;;;;;;5013420;28;19926;-60
2022/08/18 06:03:52;;;;;;;;;;;;;;;;;;5002771;28;20044;-59
2022/08/18 06:06:18;;;;;;;;;;;;;;;;;;5017863;28;19948;-59
2022/08/18 06:08:43;;;;;;;;;;;;;;;;;;5020384;28;19962;-59
2022/08/18 06:11:09;;;;;;;;;;;;;;;;;;5018660;28;19961;-60
2022/08/18 06:13:37;;;;;;;;;;;;;;;;;;5018186;28;19933;-59
2022/08/18 06:16:03;;;;;;;;;;;;;;;;;;5016929;28;19928;-60
2022/08/18 06:18:28;;;;;;;;;;;;;;;;;;5033832;28;19917;-60
2022/08/18 06:20:53;;;;;;;;;;;;;;;;;;5016484;28;20967;-60
2022/08/18 06:23:24;;;;;;;;;;;;;;;;;;5019653;28;19976;-60
2022/08/18 06:25:49;;;;;;;;;;;;;;;;;;5014443;28;19927;-60
2022/08/18 06:28:14;;;;;;;;;;;;;;;;;;5017947;28;19921;-61
2022/08/18 06:30:43;;;;;;;;;;;;;;;;;;5011077;28;20415;-61
2022/08/18 06:33:11;;;;;;;;;;;;;;;;;;5019834;28;19921;-61
2022/08/18 06:35:38;;;;;;;;;;;;;;;;;;5017253;28;21251;-61
2022/08/18 06:40:54;;;;;;;;;;;;;;;;;;5013977;28;19932;-62
2022/08/18 06:43:20;;;;;;;;;;;;;;;;;;5015508;28;20190;-61
2022/08/18 06:45:50;;;;;;;;;;;;;;;;;;5012621;28;19921;-60
2022/08/18 06:48:15;;;;;;;;;;;;;;;;;;5015363;28;21814;-61
2022/08/18 06:50:41;;;;;;;;;;;;;;;;;;5014477;28;19921;-60
2022/08/18 06:53:08;;;;;;;;;;;;;;;;;;5012943;28;19917;-61
2022/08/18 06:55:36;;;;;;;;;;;;;;;;;;5010535;28;20363;-60
2022/08/18 06:58:04;;;;;;;;;;;;;;;;;;5014448;28;19997;-61
2022/08/18 07:00:29;;;;;;;;;;;;;;;;;;5016457;28;20155;-61
2022/08/18 07:02:56;;;;;;;;;;;;;;;;;;5016306;28;20896;-62
2022/08/18 07:05:24;;;;;;;;;;;;;;;;;;5013676;28;21320;-62
2022/08/18 07:07:49;;;;;;;;;;;;;;;;;;5028228;28;22459;-61
2022/08/18 07:10:14;;;;;;;;;;;;;;;;;;5011979;28;19916;-61
2022/08/18 07:12:42;;;;;;;;;;;;;;;;;;5017445;28;19921;-62
2022/08/18 07:15:10;;;;;;;;;;;;;;;;;;5016001;28;19921;-61
2022/08/18 07:17:39;;;;;;;;;;;;;;;;;;5029946;28;19924;-62
2022/08/18 07:20:07;;;;;;;;;;;;;;;;;;5018055;28;20028;-63
2022/08/18 07:22:32;;;;;;;;;;;;;;;;;;5017185;28;20365;-62
2022/08/18 07:24:58;;;;;;;;;;;;;;;;;;5030882;28;20008;-63
2022/08/18 07:27:23;;;;;;;;;;;;;;;;;;5017899;28;20020;-62
2022/08/18 07:29:51;;;;;;;;;;;;;;;;;;5015597;28;19996;-61
2022/08/18 07:32:16;;;;;;;;;;;;;;;;;;5019411;28;19925;-64
2022/08/18 07:34:44;;;;;;;;;;;;;;;;;;5018513;28;20785;-62
2022/08/18 07:37:13;;;;;;;;;;;;;;;;;;5013426;28;19928;-62
2022/08/18 07:39:38;;;;;;;;;;;;;;;;;;5018490;28;20012;-62
2022/08/18 07:42:03;;;;;;;;;;;;;;;;;;5016643;28;20370;-62
2022/08/18 07:44:30;;;;;;;;;;;;;;;;;;5018295;28;20567;-63
2022/08/18 07:46:59;;;;;;;;;;;;;;;;;;5009337;28;19940;-61
2022/08/18 07:49:24;;;;;;;;;;;;;;;;;;5019268;28;19924;-62
2022/08/18 07:51:50;;;;;;;;;;;;;;;;;;5018441;28;19928;-62
2022/08/18 07:54:15;;;;;;;;;;;;;;;;;;5015792;28;19958;-62
2022/08/18 07:56:42;;;;;;;;;;;;;;;;;;5016993;28;19989;-63
2022/08/18 07:59:09;;;;;;;;;;;;;;;;;;5016817;28;20039;-64
2022/08/18 08:01:35;;;;;;;;;;;;;;;;;;5030699;28;20069;-64
2022/08/18 08:04:00;;;;;;;;;;;;;;;;;;5017421;28;20249;-62
2022/08/18 08:06:25;;;;;;;;;;;;;;;;;;5017169;28;19917;-67
2022/08/18 08:08:54;;;;;;;;;;;;;;;;;;5018033;28;20036;-62
2022/08/18 08:11:21;;;;;;;;;;;;;;;;;;5015273;28;20039;-63
2022/08/18 08:13:47;;;;;;;;;;;;;;;;;;5019478;28;19947;-63
2022/08/18 08:16:13;;;;;;;;;;;;;;;;;;5017621;28;19964;-63
2022/08/18 08:18:38;;;;;;;;;;;;;;;;;;5019381;28;19920;-64
2022/08/18 08:21:04;;;;;;;;;;;;;;;;;;5018392;28;19921;-63
2022/08/18 08:23:29;;;;;;;;;;;;;;;;;;5016421;28;19925;-60
2022/08/18 08:25:55;;;;;;;;;;;;;;;;;;5016652;28;19921;-62
2022/08/18 08:28:22;;;;;;;;;;;;;;;;;;5019090;28;19924;-63
2022/08/18 08:30:50;;;;;;;;;;;;;;;;;;5015690;28;20930;-63
2022/08/18 08:33:18;;;;;;;;;;;;;;;;;;4999733;28;19916;-62
2022/08/18 08:35:46;;;;;;;;;;;;;;;;;;5017669;28;19928;-64
2022/08/18 08:38:14;;;;;;;;;;;;;;;;;;5015688;28;19917;-62
2022/08/18 08:40:41;;;;;;;;;;;;;;;;;;5017108;28;19921;-65
2022/08/18 08:43:07;;;;;;;;;;;;;;;;;;5012659;28;19940;-62
2022/08/18 08:45:33;;;;;;;;;;;;;;;;;;5016150;28;19979;-63
2022/08/18 08:48:00;;;;;;;;;;;;;;;;;;5015124;28;19932;-65
2022/08/18 08:50:31;;;;;;;;;;;;;;;;;;5014014;28;19921;-64
2022/08/18 08:52:57;;;;;;;;;;;;;;;;;;5014997;28;19921;-66
2022/08/18 08:55:25;;;;;;;;;;;;;;;;;;5016152;28;19921;-66
2022/08/18 08:57:50;;;;;;;;;;;;;;;;;;5003415;28;20277;-64
2022/08/18 09:00:15;;;;;;;;;;;;;;;;;;5014698;28;19917;-63
2022/08/18 09:02:44;;;;;;;;;;;;;;;;;;5026668;28;19935;-64
2022/08/18 09:05:09;;;;;;;;;;;;;;;;;;5016904;28;19975;-63
2022/08/18 09:07:39;;;;;;;;;;;;;;;;;;5018032;28;20027;-66
2022/08/18 09:10:07;;;;;;;;;;;;;;;;;;5018187;28;19916;-64
2022/08/18 09:12:32;;;;;;;;;;;;;;;;;;5017555;28;21000;-65
2022/08/18 09:14:58;;;;;;;;;;;;;;;;;;5014042;28;20553;-65
2022/08/18 09:17:23;;;;;;;;;;;;;;;;;;5015625;28;19971;-65
2022/08/18 09:19:48;;;;;;;;;;;;;;;;;;5003598;28;19921;-64
2022/08/18 09:22:14;;;;;;;;;;;;;;;;;;5033083;28;19924;-64
2022/08/18 09:24:42;;;;;;;;;;;;;;;;;;5020052;28;19948;-65
2022/08/18 09:27:08;;;;;;;;;;;;;;;;;;5019522;28;20027;-64
2022/08/18 09:29:36;;;;;;;;;;;;;;;;;;5020013;28;19928;-65
2022/08/18 09:32:01;;;;;;;;;;;;;;;;;;5017642;28;19924;-65
2022/08/18 09:34:30;;;;;;;;;;;;;;;;;;5016948;28;19956;-64
2022/08/18 09:36:58;;;;;;;;;;;;;;;;;;5019427;28;19928;-65
2022/08/18 09:42:08;;;;;;;;;;;;;;;;;;5020248;28;19924;-65
2022/08/18 09:44:34;;;;;;;;;;;;;;;;;;5018701;28;20293;-66
2022/08/18 09:46:59;;;;;;;;;;;;;;;;;;5020387;28;19921;-64
2022/08/18 09:49:25;;;;;;;;;;;;;;;;;;5015463;28;19989;-65
2022/08/18 09:51:50;;;;;;;;;;;;;;;;;;5011241;28;19916;-66
2022/08/18 09:54:19;;;;;;;;;;;;;;;;;;5012301;28;19917;-66
2022/08/18 09:56:44;;;;;;;;;;;;;;;;;;5012180;28;19925;-67
2022/08/18 09:59:10;;;;;;;;;;;;;;;;;;5013086;28;20376;-67
2022/08/18 10:01:35;;;;;;;;;;;;;;;;;;5013888;28;19917;-67
2022/08/18 10:04:03;;;;;;;;;;;;;;;;;;5010454;28;20848;-67
2022/08/18 10:06:29;;;;;;;;;;;;;;;;;;5008974;28;19917;-66
2022/08/18 10:08:54;;;;;;;;;;;;;;;;;;5014253;28;21607;-66
2022/08/18 10:11:19;;;;;;;;;;;;;;;;;;5015245;28;20005;-66
2022/08/18 10:13:46;;;;;;;;;;;;;;;;;;5013228;28;19967;-66
2022/08/18 10:16:11;;;;;;;;;;;;;;;;;;5008423;28;19953;-65
2022/08/18 10:18:37;;;;;;;;;;;;;;;;;;5010051;28;19925;-61
2022/08/18 10:21:02;;;;;;;;;;;;;;;;;;5011753;28;21134;-66
2022/08/18 10:23:27;;;;;;;;;;;;;;;;;;5012880;28;19990;-66
2022/08/18 10:25:53;;;;;;;;;;;;;;;;;;5010834;28;20012;-65
2022/08/18 10:28:19;;;;;;;;;;;;;;;;;;5011735;28;20476;-66
2022/08/18 10:30:44;;;;;;;;;;;;;;;;;;5015749;28;19928;-66
2022/08/18 10:33:10;;;;;;;;;;;;;;;;;;5018423;28;19946;-66
2022/08/18 10:35:35;;;;;;;;;;;;;;;;;;5015662;28;19927;-65
2022/08/18 10:38:03;;;;;;;;;;;;;;;;;;5000668;28;19921;-66
2022/08/18 10:40:29;;;;;;;;;;;;;;;;;;5027799;28;21042;-66
2022/08/18 10:42:56;;;;;;;;;;;;;;;;;;5017587;28;20495;-67
2022/08/18 10:45:25;;;;;;;;;;;;;;;;;;5016113;28;19928;-67
2022/08/18 10:47:50;;;;;;;;;;;;;;;;;;5009875;28;19920;-65
2022/08/18 10:50:16;;;;;;;;;;;;;;;;;;5008930;28;19921;-65
2022/08/18 10:52:41;;;;;;;;;;;;;;;;;;5011664;28;20811;-65
2022/08/18 10:55:06;;;;;;;;;;;;;;;;;;5013338;28;19993;-66
2022/08/18 10:57:32;;;;;;;;;;;;;;;;;;5012111;28;20678;-65
2022/08/18 10:59:57;;;;;;;;;;;;;;;;;;5009865;28;19969;-65
2022/08/18 11:02:22;;;;;;;;;;;;;;;;;;5008036;28;19924;-65
2022/08/18 11:04:48;;;;;;;;;;;;;;;;;;5001088;28;19928;-66
2022/08/18 11:07:14;;;;;;;;;;;;;;;;;;5007749;28;19928;-67
2022/08/18 11:09:40;;;;;;;;;;;;;;;;;;5011752;28;19921;-66
2022/08/18 11:12:05;;;;;;;;;;;;;;;;;;5009787;28;19959;-66
2022/08/18 11:14:31;;;;;;;;;;;;;;;;;;5010505;28;19979;-67
2022/08/18 11:17:01;;;;;;;;;;;;;;;;;;5016543;28;19917;-67
2022/08/18 11:19:27;;;;;;;;;;;;;;;;;;5009496;28;19981;-66
2022/08/18 11:21:52;;;;;;;;;;;;;;;;;;5010680;28;19925;-67
2022/08/18 11:24:19;;;;;;;;;;;;;;;;;;5011316;28;21033;-65
2022/08/18 11:26:45;;;;;;;;;;;;;;;;;;5008673;28;19917;-66
2022/08/18 11:29:10;;;;;;;;;;;;;;;;;;5010164;28;19939;-65
2022/08/18 11:31:38;;;;;;;;;;;;;;;;;;5009359;28;19927;-66
2022/08/18 11:34:04;;;;;;;;;;;;;;;;;;4997543;28;20239;-66
2022/08/18 11:36:29;;;;;;;;;;;;;;;;;;5008938;28;19917;-65
2022/08/18 11:38:55;;;;;;;;;;;;;;;;;;4998952;28;20933;-65
2022/08/18 11:41:23;;;;;;;;;;;;;;;;;;5012844;28;19925;-65
2022/08/18 11:43:48;;;;;;;;;;;;;;;;;;5015516;28;20056;-65
2022/08/18 11:46:14;;;;;;;;;;;;;;;;;;5008413;28;20621;-65
2022/08/18 11:48:39;;;;;;;;;;;;;;;;;;5011551;28;19959;-64
2022/08/18 11:51:04;;;;;;;;;;;;;;;;;;5008052;28;19921;-65
2022/08/18 11:53:30;;;;;;;;;;;;;;;;;;5012647;28;20016;-64
2022/08/18 11:55:55;;;;;;;;;;;;;;;;;;5006681;28;20025;-64
2022/08/18 11:58:21;;;;;;;;;;;;;;;;;;5006986;28;19994;-65
2022/08/18 12:00:46;;;;;;;;;;;;;;;;;;5008128;28;20777;-65
2022/08/18 12:03:14;;;;;;;;;;;;;;;;;;5007406;28;20866;-65
2022/08/18 12:05:41;;;;;;;;;;;;;;;;;;5010911;28;19917;-65
2022/08/18 12:08:07;;;;;;;;;;;;;;;;;;5008879;28;19924;-63
2022/08/18 12:10:32;;;;;;;;;;;;;;;;;;5005921;28;19925;-65
2022/08/18 12:13:01;;;;;;;;;;;;;;;;;;5008734;28;19978;-65
2022/08/18 12:15:27;;;;;;;;;;;;;;;;;;5008738;28;19928;-64
2022/08/18 12:17:52;;;;;;;;;;;;;;;;;;5009007;28;20021;-65
2022/08/18 12:20:17;;;;;;;;;;;;;;;;;;5009317;28;20000;-63
2022/08/18 12:22:48;;;;;;;;;;;;;;;;;;5005216;28;20181;-63
2022/08/18 12:25:13;;;;;;;;;;;;;;;;;;5010285;28;20019;-67
2022/08/18 12:27:39;;;;;;;;;;;;;;;;;;5009417;28;19920;-63
2022/08/18 12:30:04;;;;;;;;;;;;;;;;;;5005286;28;20373;-62
2022/08/18 12:32:31;;;;;;;;;;;;;;;;;;5006879;28;20022;-66
2022/08/18 12:34:59;;;;;;;;;;;;;;;;;;5010515;28;19988;-63
2022/08/18 12:37:24;;;;;;;;;;;;;;;;;;5007049;28;20328;-63
2022/08/18 12:39:53;;;;;;;;;;;;;;;;;;5012436;28;19928;-63
2022/08/18 12:42:21;;;;;;;;;;;;;;;;;;4996771;28;19921;-63
2022/08/18 12:44:46;;;;;;;;;;;;;;;;;;5010525;28;19916;-63
2022/08/18 12:47:12;;;;;;;;;;;;;;;;;;5012654;28;20069;-64
2022/08/18 12:49:37;;;;;;;;;;;;;;;;;;5012957;28;20042;-63
2022/08/18 12:52:02;;;;;;;;;;;;;;;;;;5006529;28;20067;-62
2022/08/18 12:54:28;;;;;;;;;;;;;;;;;;5007225;28;20024;-62
2022/08/18 12:56:56;;;;;;;;;;;;;;;;;;5006615;28;19921;-62
2022/08/18 12:59:22;;;;;;;;;;;;;;;;;;5021943;28;19921;-62
2022/08/18 13:01:48;;;;;;;;;;;;;;;;;;5006944;28;19991;-62
2022/08/18 13:04:18;;;;;;;;;;;;;;;;;;5007612;28;20061;-62
2022/08/18 13:06:43;;;;;;;;;;;;;;;;;;5014273;28;19920;-61
2022/08/18 13:09:09;;;;;;;;;;;;;;;;;;5008691;28;19921;-62
2022/08/18 13:11:34;;;;;;;;;;;;;;;;;;5015344;28;19982;-62
2022/08/18 13:14:00;;;;;;;;;;;;;;;;;;5012362;28;19932;-62
2022/08/18 13:16:25;;;;;;;;;;;;;;;;;;5011910;28;19921;-62
2022/08/18 13:18:53;;;;;;;;;;;;;;;;;;4994170;28;19932;-61
2022/08/18 13:21:19;;;;;;;;;;;;;;;;;;5010121;28;19920;-62
2022/08/18 13:23:44;;;;;;;;;;;;;;;;;;5009912;28;19925;-62
2022/08/18 13:26:09;;;;;;;;;;;;;;;;;;5010253;28;21712;-62
2022/08/18 13:28:34;;;;;;;;;;;;;;;;;;5013772;28;19932;-61
2022/08/18 13:31:03;;;;;;;;;;;;;;;;;;5014937;28;19920;-61
2022/08/18 13:33:29;;;;;;;;;;;;;;;;;;5011572;28;21092;-62
2022/08/18 13:35:54;;;;;;;;;;;;;;;;;;5010525;28;19928;-62
2022/08/18 13:38:21;;;;;;;;;;;;;;;;;;5006681;28;19921;-62
2022/08/18 13:40:47;;;;;;;;;;;;;;;;;;5005892;28;20043;-62
2022/08/18 13:43:13;;;;;;;;;;;;;;;;;;5008493;28;20578;-61
2022/08/18 13:45:38;;;;;;;;;;;;;;;;;;5010714;28;19921;-62
2022/08/18 13:48:04;;;;;;;;;;;;;;;;;;5008146;28;20463;-63
2022/08/18 13:50:30;;;;;;;;;;;;;;;;;;5011889;28;19933;-63
2022/08/18 13:52:55;;;;;;;;;;;;;;;;;;5008173;28;19928;-63
2022/08/18 13:55:22;;;;;;;;;;;;;;;;;;5012332;28;20195;-62
2022/08/18 13:57:47;;;;;;;;;;;;;;;;;;5008880;28;19971;-62
2022/08/18 14:00:12;;;;;;;;;;;;;;;;;;5009330;28;20008;-62
2022/08/18 14:02:41;;;;;;;;;;;;;;;;;;5006946;28;21882;-63
2022/08/18 14:05:09;;;;;;;;;;;;;;;;;;5009638;28;19956;-62
2022/08/18 14:07:35;;;;;;;;;;;;;;;;;;5012088;28;20444;-63
2022/08/18 14:10:00;;;;;;;;;;;;;;;;;;5015852;28;20315;-63
2022/08/18 14:12:28;;;;;;;;;;;;;;;;;;5014662;28;20146;-62
2022/08/18 14:14:53;;;;;;;;;;;;;;;;;;5013029;28;19987;-63
2022/08/18 14:17:18;;;;;;;;;;;;;;;;;;5029290;28;20483;-62
2022/08/18 14:27:57;;;;;;;;;;;;;;;;;;5025376;28;20706;-63
2022/08/18 14:30:25;;;;;;;;;;;;;;;;;;5009446;28;20456;-63
2022/08/18 14:32:52;;;;;;;;;;;;;;;;;;5011075;28;19928;-63
2022/08/18 14:35:18;;;;;;;;;;;;;;;;;;5011586;28;19917;-64
2022/08/18 14:37:45;;;;;;;;;;;;;;;;;;5009427;28;20006;-63
2022/08/18 14:40:11;;;;;;;;;;;;;;;;;;5011823;28;20599;-62
2022/08/18 14:42:37;;;;;;;;;;;;;;;;;;5014613;28;20032;-63
2022/08/18 14:45:03;;;;;;;;;;;;;;;;;;5009663;28;19925;-64
2022/08/18 14:47:31;;;;;;;;;;;;;;;;;;5014091;28;19921;-64
2022/08/18 14:49:57;;;;;;;;;;;;;;;;;;5012745;28;19916;-64
2022/08/18 14:52:26;;;;;;;;;;;;;;;;;;5012506;28;19929;-64
2022/08/18 14:54:51;;;;;;;;;;;;;;;;;;5028991;28;19959;-61
2022/08/18 14:57:19;;;;;;;;;;;;;;;;;;5012857;28;19969;-64
2022/08/18 14:59:46;;;;;;;;;;;;;;;;;;5010509;28;19927;-64
2022/08/18 15:02:11;;;;;;;;;;;;;;;;;;5014022;28;19968;-64
2022/08/18 15:04:36;;;;;;;;;;;;;;;;;;5014332;28;20050;-65
2022/08/18 15:07:05;;;;;;;;;;;;;;;;;;5026305;28;19925;-64
2022/08/18 15:09:30;;;;;;;;;;;;;;;;;;5012237;28;19994;-63
2022/08/18 15:11:57;;;;;;;;;;;;;;;;;;5012725;28;20387;-63
2022/08/18 15:14:22;;;;;;;;;;;;;;;;;;5011660;28;19974;-63
2022/08/18 15:16:48;;;;;;;;;;;;;;;;;;5011203;28;19917;-62
2022/08/18 15:19:21;;;;;;;;;;;;;;;;;;5011184;28;19956;-62
2022/08/18 15:27:18;;;;;;;;;;;;;;;;;;5372455;22;19929;-64
2022/08/18 15:29:44;;;;;;;;;;;;;;;;;;5024544;28;21799;-64
2022/08/18 15:32:14;;;;;;;;;;;;;;;;;;5023357;28;19925;-66
2022/08/18 15:34:42;;;;;;;;;;;;;;;;;;4995053;28;19957;-65
2022/08/18 15:37:07;;;;;;;;;;;;;;;;;;4996963;28;19925;-64
2022/08/18 15:39:32;;;;;;;;;;;;;;;;;;4985787;28;21047;-64
2022/08/18 15:42:01;;;;;;;;;;;;;;;;;;4981094;28;19927;-66
2022/08/18 15:44:29;;;;;;;;;;;;;;;;;;4981237;28;19943;-63
2022/08/18 15:46:55;;;;;;;;;;;;;;;;;;4992252;28;19918;-64
2022/08/18 15:49:22;;;;;;;;;;;;;;;;;;5000187;28;20013;-64
2022/08/18 15:51:47;;;;;;;;;;;;;;;;;;4994912;28;19955;-64
2022/08/18 15:54:13;;;;;;;;;;;;;;;;;;4995558;28;19918;-65
2022/08/18 15:56:38;;;;;;;;;;;;;;;;;;4992214;28;19925;-65
2022/08/18 15:59:08;;;;;;;;;;;;;;;;;;4992309;28;19921;-64
2022/08/18 16:01:37;;;;;;;;;;;;;;;;;;4990863;28;19929;-63
2022/08/18 16:04:03;;;;;;;;;;;;;;;;;;5021260;28;19932;-64
2022/08/18 16:06:33;;;;;;;;;;;;;;;;;;4994235;28;20023;-64
2022/08/18 16:09:01;;;;;;;;;;;;;;;;;;4991312;28;19925;-63
2022/08/18 16:11:29;;;;;;;;;;;;;;;;;;5001662;28;20028;-64
2022/08/18 16:13:54;;;;;;;;;;;;;;;;;;4997889;28;19923;-64
2022/08/18 16:16:20;;;;;;;;;;;;;;;;;;4996655;28;19955;-64
2022/08/18 16:18:48;;;;;;;;;;;;;;;;;;5003265;28;20039;-63
2022/08/18 16:21:13;;;;;;;;;;;;;;;;;;4997993;28;19928;-63
2022/08/18 16:23:39;;;;;;;;;;;;;;;;;;4997550;28;19921;-66
2022/08/18 16:26:04;;;;;;;;;;;;;;;;;;5026190;28;19921;-63
2022/08/18 16:28:30;;;;;;;;;;;;;;;;;;4999716;28;19925;-64
2022/08/18 16:31:00;;;;;;;;;;;;;;;;;;5000164;28;19917;-64
2022/08/18 16:33:25;;;;;;;;;;;;;;;;;;4996402;28;19924;-64
2022/08/18 16:35:53;;;;;;;;;;;;;;;;;;4994813;28;19932;-62
2022/08/18 16:38:18;;;;;;;;;;;;;;;;;;4994710;28;20032;-63
2022/08/18 16:40:43;;;;;;;;;;;;;;;;;;5010406;28;19925;-63
2022/08/18 16:43:13;;;;;;;;;;;;;;;;;;4993156;28;19932;-64
2022/08/18 16:45:41;;;;;;;;;;;;;;;;;;5016418;28;20269;-65
2022/08/18 16:48:09;;;;;;;;;;;;;;;;;;4997090;28;20352;-63
2022/08/18 16:50:34;;;;;;;;;;;;;;;;;;5023401;28;19972;-67
2022/08/18 16:53:00;;;;;;;;;;;;;;;;;;4993488;28;20505;-67
2022/08/18 16:55:29;;;;;;;;;;;;;;;;;;4982278;28;19925;-65
2022/08/18 17:06:09;;;;;;;;;;;;;;;;;;4995199;28;19941;-64
2022/08/18 17:08:34;;;;;;;;;;;;;;;;;;4997874;28;20055;-64
2022/08/18 17:11:02;;;;;;;;;;;;;;;;;;4979960;28;19948;-65
2022/08/18 17:13:33;;;;;;;;;;;;;;;;;;4997382;28;20009;-65
2022/08/18 17:15:58;;;;;;;;;;;;;;;;;;4995504;28;20717;-63
2022/08/18 17:18:23;;;;;;;;;;;;;;;;;;4997152;28;19921;-65